MAPA DE AEROPUERTO

INFORMACIÓN METAR y TAF

METAR FOR LESA
ADDS - METARS form results

(1659 UTC 07 May 2021)
Data provider http://aviationweather.gov/metar/data/
 
METAR text: LESA 071630Z 29010KT 250V340 9999 FEW047 25/08 Q1018
Conditions at: LESA (SALAMANCA (CIV/M, ES) observed 1630 UTC 07 May 2021
Temperature: 25.0°C (77°F)
Dewpoint: 8.0°C (46°F) [RH = 34%]
Pressure (altimeter): 30.06 inches Hg (1018.0 mb)
Winds: from the WNW (290 degrees) at 12 MPH (10 knots; 5.1 m/s)
Visibility: 6 or more miles (10+ km)
Ceiling: at least 12,000 feet AGL
Clouds: few clouds at 4700 feet AGL
Weather: no significant weather observed at this time

METAR text: LESA 071600Z 30011KT 250V340 9999 FEW047 26/08 Q1018
Conditions at: LESA (SALAMANCA (CIV/M, ES) observed 1600 UTC 07 May 2021
Temperature: 26.0°C (79°F)
Dewpoint: 8.0°C (46°F) [RH = 32%]
Pressure (altimeter): 30.06 inches Hg (1018.0 mb)
Winds: from the WNW (300 degrees) at 13 MPH (11 knots; 5.7 m/s)
Visibility: 6 or more miles (10+ km)
Ceiling: at least 12,000 feet AGL
Clouds: few clouds at 4700 feet AGL
Weather: no significant weather observed at this time

Forecast for: LESA (SALAMANCA (CIV/M, ES)
Text: TAF LESA 071400Z 0715/0815 26008KT 9999 FEW040 TX27/0815Z TN10/0805Z
Forecast period: 1500 UTC 07 May 2021 to 0600 UTC 08 May 2021
Forecast type: FROM: standard forecast or significant change
Winds: from the W (260 degrees) at 9 MPH (8 knots; 4.1 m/s)
Visibility: 6 or more miles (10+ km)
Ceiling: at least 12,000 feet AGL
Clouds: few clouds at 4000 feet AGL
Weather: no significant weather forecast for this period
Text: BECMG 0806/0807 20015KT
Forecast period: 0600 to 1500 UTC 08 May 2021
Forecast type: BECOMING: Conditions expected to become as follows by 0700 UTC 08 May 2021
Winds: from the SSW (200 degrees) at 17 MPH (15 knots; 7.7 m/s)
Visibility: 6 or more miles (10+ km)
Ceiling: at least 12,000 feet AGL
Clouds: few clouds at 4000 feet AGL
Weather: no significant weather forecast for this period
Text: PROB40
Forecast period: 1200 to 1500 UTC 08 May 2021
Forecast type: TEMPORARY: The following changes expected for less than half the time period
Winds: from the SSW (200 degrees) at 21 MPH (18 knots; 9.3 m/s)
gusting to 34 MPH (30 knots; 15.4 m/s)
Visibility: missing
Ceiling: unknown
Clouds: missing
Weather: no significant weather forecast for this period